Time;durP1;ratioP1;P1;durP2;ratioP2;P2;SDS_P1;SDS_P2;PMS_P1;PMS_P2;Temp;Humidity;BMP_temperature;BMP_pressure;BME280_temperature;BME280_humidity;BME280_pressure;Samples;Min_cycle;Max_cycle;Signal;HPM_P1;HPM_P2
2022/03/09 00:01:39;;;;;;;13.07;7.50;;;;;;;1.53;54.98;101068.16;5091601;28;20463;-63
2022/03/09 00:04:07;;;;;;;8.70;7.70;;;;;;;1.74;54.89;101069.06;5092565;28;20431;-63
2022/03/09 00:06:34;;;;;;;9.63;6.90;;;;;;;1.74;54.55;101083.09;5080774;28;20447;-63
2022/03/09 00:09:00;;;;;;;10.03;6.40;;;;;;;1.78;54.91;101081.19;5081055;28;20555;-63
2022/03/09 00:11:27;;;;;;;8.10;6.57;;;;;;;1.76;55.17;101078.63;5082336;28;20455;-63
2022/03/09 00:13:54;;;;;;;13.00;7.03;;;;;;;1.74;55.08;101082.25;5095752;28;20467;-63
2022/03/09 00:16:20;;;;;;;9.30;6.70;;;;;;;1.73;55.19;101077.88;5081607;28;20483;-62
2022/03/09 00:18:47;;;;;;;8.27;6.70;;;;;;;1.75;55.10;101083.94;5086542;28;20478;-63
2022/03/09 00:21:15;;;;;;;10.70;8.33;;;;;;;1.71;55.69;101082.38;5081513;28;20483;-62
2022/03/09 00:23:42;;;;;;;10.30;6.30;;;;;;;1.55;56.19;101093.53;5084360;28;20455;-63
2022/03/09 00:26:08;;;;;;;10.47;6.60;;;;;;;1.42;56.93;101084.41;5101231;28;20447;-63
2022/03/09 00:28:35;;;;;;;12.50;8.33;;;;;;;1.29;57.75;101089.31;5088585;28;20451;-63
2022/03/09 00:31:02;;;;;;;7.23;6.10;;;;;;;1.36;56.72;101079.38;5090770;28;20478;-63
2022/03/09 00:33:28;;;;;;;8.87;6.60;;;;;;;1.56;55.92;101089.97;5091621;28;20529;-63
2022/03/09 00:35:55;;;;;;;7.60;5.83;;;;;;;1.62;55.36;101080.97;5086068;28;20460;-63
2022/03/09 00:38:23;;;;;;;11.90;7.27;;;;;;;1.70;55.37;101086.75;5088644;28;20490;-63
2022/03/09 00:40:50;;;;;;;8.87;6.30;;;;;;;1.61;56.46;101097.69;5088356;28;20486;-63
2022/03/09 00:43:16;;;;;;;11.13;7.17;;;;;;;1.27;57.59;101088.50;5102666;28;20442;-63
2022/03/09 00:45:43;;;;;;;8.23;6.60;;;;;;;1.27;57.08;101084.09;5090104;28;20475;-63
2022/03/09 00:48:10;;;;;;;10.70;6.67;;;;;;;1.28;56.98;101080.53;5092698;28;20435;-63
2022/03/09 00:50:37;;;;;;;10.53;7.13;;;;;;;1.37;56.19;101074.06;5102535;28;20550;-63
2022/03/09 00:53:04;;;;;;;8.20;6.30;;;;;;;1.40;56.55;101084.44;5102823;28;20435;-63
2022/03/09 00:55:32;;;;;;;9.83;6.50;;;;;;;1.40;55.92;101079.19;5086738;28;20436;-63
2022/03/09 00:57:59;;;;;;;12.27;6.47;;;;;;;1.48;55.39;101077.09;5103899;28;20439;-63
2022/03/09 01:00:25;;;;;;;8.10;6.20;;;;;;;1.46;56.32;101076.31;5101742;28;20448;-63
2022/03/09 01:02:52;;;;;;;13.60;7.33;;;;;;;1.39;57.22;101082.75;5098569;28;20447;-63
2022/03/09 01:05:19;;;;;;;9.60;7.17;;;;;;;1.35;57.79;101089.03;5098857;28;20455;-63
2022/03/09 01:07:45;;;;;;;9.63;6.87;;;;;;;1.34;57.98;101084.72;5098522;28;20440;-63
2022/03/09 01:10:12;;;;;;;9.93;7.00;;;;;;;1.24;57.93;101086.00;5083359;28;20448;-64
2022/03/09 01:12:41;;;;;;;8.13;6.23;;;;;;;1.14;57.99;101090.75;5087056;28;20441;-63
2022/03/09 01:15:08;;;;;;;7.40;6.00;;;;;;;1.05;58.14;101086.69;5101815;28;20486;-63
2022/03/09 01:17:35;;;;;;;10.50;6.67;;;;;;;0.97;58.18;101101.94;5089385;28;20500;-63
2022/03/09 01:20:02;;;;;;;11.03;7.73;;;;;;;0.98;58.81;101101.03;5095395;28;20472;-63
2022/03/09 01:22:28;;;;;;;13.80;7.00;;;;;;;0.91;59.44;101091.66;5095060;28;20459;-63
2022/03/09 01:24:55;;;;;;;8.10;6.17;;;;;;;0.92;59.54;101088.97;5092436;28;20463;-63
2022/03/09 01:27:22;;;;;;;7.87;6.37;;;;;;;0.84;59.75;101095.44;5093712;28;20498;-63
2022/03/09 01:29:50;;;;;;;9.63;6.47;;;;;;;0.68;60.09;101085.47;5087148;28;20446;-63
2022/03/09 01:32:19;;;;;;;8.57;6.67;;;;;;;0.69;59.94;101088.94;5084316;28;20456;-63
2022/03/09 01:34:46;;;;;;;10.50;7.07;;;;;;;0.77;59.67;101091.31;5095157;28;20471;-63
2022/03/09 01:37:13;;;;;;;8.43;6.23;;;;;;;0.84;59.42;101088.38;5086772;28;20464;-63
2022/03/09 01:39:39;;;;;;;7.27;5.93;;;;;;;0.88;58.85;101081.22;5084847;28;20517;-63
2022/03/09 01:42:06;;;;;;;10.00;5.97;;;;;;;0.91;58.66;101075.84;5083090;28;20507;-63
2022/03/09 01:44:33;;;;;;;8.83;5.73;;;;;;;0.93;58.46;101079.28;5089460;28;20485;-63
2022/03/09 01:47:01;;;;;;;12.67;7.30;;;;;;;0.91;58.32;101089.84;5102984;28;20451;-63
2022/03/09 01:49:28;;;;;;;7.90;5.90;;;;;;;0.97;57.97;101086.13;5101209;28;20463;-62
2022/03/09 01:51:57;;;;;;;7.17;5.97;;;;;;;0.91;58.15;101089.00;5103460;28;20443;-62
2022/03/09 01:54:24;;;;;;;10.30;6.83;;;;;;;0.87;58.56;101082.16;5085170;28;20479;-63
2022/03/09 01:56:51;;;;;;;8.20;6.67;;;;;;;0.83;59.18;101083.16;5093640;28;20915;-63
2022/03/09 01:59:18;;;;;;;7.90;6.57;;;;;;;0.81;59.40;101077.09;5082838;28;20861;-63
2022/03/09 02:01:46;;;;;;;8.13;6.40;;;;;;;0.75;59.08;101080.84;5097123;28;20544;-63
2022/03/09 02:04:14;;;;;;;10.20;7.50;;;;;;;0.81;59.09;101075.31;5101128;28;20820;-63
2022/03/09 02:06:41;;;;;;;7.67;6.80;;;;;;;0.85;58.99;101076.06;5102360;28;20522;-63
2022/03/09 02:11:54;;;;;;;9.27;7.30;;;;;;;0.78;59.04;101071.94;5097675;28;20443;-63
2022/03/09 02:14:30;;;;;;;9.17;6.47;;;;;;;0.81;59.07;101077.09;5082816;28;20476;-63
2022/03/09 02:16:57;;;;;;;10.83;6.40;;;;;;;0.77;59.54;101079.00;5083139;28;20451;-63
2022/03/09 02:19:25;;;;;;;7.97;6.63;;;;;;;0.77;59.48;101076.38;5082007;28;21003;-64
2022/03/09 02:21:56;;;;;;;10.47;6.53;;;;;;;0.70;59.94;101073.09;5092331;28;21368;-63
2022/03/09 02:24:24;;;;;;;10.00;6.50;;;;;;;0.77;60.08;101072.88;5084490;28;20470;-63
2022/03/09 02:26:51;;;;;;;9.13;6.47;;;;;;;0.68;60.18;101072.31;5082512;28;20683;-63
2022/03/09 02:29:17;;;;;;;9.80;7.10;;;;;;;0.59;60.50;101077.91;5083373;28;20457;-63
2022/03/09 02:31:44;;;;;;;9.67;6.87;;;;;;;0.54;61.15;101077.22;5081222;28;20508;-62
2022/03/09 02:34:11;;;;;;;7.43;6.43;;;;;;;0.49;61.50;101072.13;5098587;28;20479;-63
2022/03/09 02:36:38;;;;;;;8.93;6.20;;;;;;;0.44;61.57;101078.47;5101132;28;20534;-62
2022/03/09 02:39:04;;;;;;;10.07;6.40;;;;;;;0.29;62.14;101070.19;5085376;28;20499;-62
2022/03/09 02:41:33;;;;;;;8.10;5.93;;;;;;;0.25;62.09;101067.75;5085408;28;20472;-63
2022/03/09 02:44:00;;;;;;;10.63;7.30;;;;;;;0.27;62.18;101074.66;5083350;28;20451;-63
2022/03/09 02:46:27;;;;;;;10.47;7.40;;;;;;;0.21;62.23;101074.00;5091914;28;20443;-63
2022/03/09 02:48:54;;;;;;;8.10;6.70;;;;;;;0.25;62.43;101079.13;5101106;28;20436;-63
2022/03/09 02:51:23;;;;;;;8.60;6.93;;;;;;;0.28;62.25;101079.03;5086516;28;20507;-63
2022/03/09 02:53:50;;;;;;;8.57;6.83;;;;;;;0.17;62.45;101068.88;5081900;28;20475;-63
2022/03/09 02:56:17;;;;;;;11.93;6.93;;;;;;;0.10;62.83;101077.88;5082552;28;20509;-63
2022/03/09 02:58:46;;;;;;;9.18;7.13;;;;;;;0.15;62.65;101075.94;5090354;28;20448;-64
2022/03/09 03:01:13;;;;;;;9.10;6.83;;;;;;;0.18;63.12;101080.25;5082091;28;20206;-63
2022/03/09 03:03:41;;;;;;;9.80;6.70;;;;;;;0.23;63.04;101082.75;5081713;28;20471;-64
2022/03/09 03:06:07;;;;;;;11.20;8.27;;;;;;;0.16;62.60;101079.47;5100439;28;20482;-63
2022/03/09 03:08:34;;;;;;;10.70;7.07;;;;;;;0.09;62.41;101097.22;5086396;28;20197;-64
2022/03/09 03:11:01;;;;;;;8.65;7.65;;;;;;;0.03;62.73;101089.53;5085522;28;20488;-64
2022/03/09 03:13:28;;;;;;;10.30;6.83;;;;;;;0.04;63.12;101087.78;5099156;28;20203;-63
2022/03/09 03:15:56;;;;;;;9.77;7.63;;;;;;;0.06;62.97;101078.06;5101143;28;20517;-64
2022/03/09 03:18:23;;;;;;;9.17;6.40;;;;;;;0.02;63.25;101077.31;5096222;28;20204;-64
2022/03/09 03:20:54;;;;;;;9.00;6.93;;;;;;;0.01;63.16;101080.84;5101222;28;20962;-63
2022/03/09 03:23:21;;;;;;;10.83;7.17;;;;;;;0.03;63.26;101091.31;5088067;28;20511;-63
2022/03/09 03:25:48;;;;;;;12.85;6.78;;;;;;;0.03;63.46;101084.25;5088359;28;20489;-63
2022/03/09 03:28:14;;;;;;;9.50;7.30;;;;;;;0.04;63.26;101080.75;5099861;28;20251;-63
2022/03/09 03:30:41;;;;;;;9.53;7.23;;;;;;;0.00;63.24;101087.03;5091669;28;20213;-63
2022/03/09 03:33:09;;;;;;;10.10;7.43;;;;;;;-0.05;63.25;101084.53;5082327;28;20474;-63
2022/03/09 03:35:36;;;;;;;8.60;6.57;;;;;;;-0.09;63.34;101095.19;5101192;28;20249;-63
2022/03/09 03:38:03;;;;;;;7.83;7.03;;;;;;;-0.06;63.56;101092.47;5100389;28;20241;-64
2022/03/09 03:40:30;;;;;;;12.33;8.03;;;;;;;-0.09;63.25;101088.16;5094484;28;20444;-64
2022/03/09 03:42:56;;;;;;;11.33;7.20;;;;;;;-0.09;63.65;101089.94;5084254;28;20446;-63
2022/03/09 03:45:26;;;;;;;9.20;7.30;;;;;;;-0.21;63.58;101083.31;5081697;28;20447;-64
2022/03/09 03:47:52;;;;;;;11.50;7.88;;;;;;;-0.28;63.80;101082.69;5097995;28;20481;-63
2022/03/09 03:50:21;;;;;;;10.10;7.43;;;;;;;-0.21;63.80;101093.84;5101755;28;20246;-63
2022/03/09 03:52:47;;;;;;;8.70;6.37;;;;;;;-0.14;63.50;101094.50;5100660;28;20197;-63
2022/03/09 03:55:14;;;;;;;10.37;7.43;;;;;;;-0.14;63.46;101089.22;5097676;28;20494;-63
2022/03/09 03:57:41;;;;;;;10.80;6.88;;;;;;;-0.12;63.64;101092.66;5084520;28;20479;-63
2022/03/09 04:00:10;;;;;;;12.48;7.53;;;;;;;-0.12;63.80;101108.44;5098980;28;20219;-63
2022/03/09 04:02:37;;;;;;;10.20;7.27;;;;;;;-0.09;63.54;101100.47;5100111;28;20240;-63
2022/03/09 04:05:05;;;;;;;10.67;7.00;;;;;;;-0.13;63.75;101109.38;5083575;28;20431;-63
2022/03/09 04:07:33;;;;;;;11.63;6.83;;;;;;;-0.26;64.39;101108.91;5087270;28;20443;-63
2022/03/09 04:10:00;;;;;;;16.55;7.65;;;;;;;-0.42;64.81;101111.16;5100729;28;20447;-63
2022/03/09 04:12:26;;;;;;;12.70;8.02;;;;;;;-0.56;65.41;101114.22;5095024;28;20198;-63
2022/03/09 04:14:53;;;;;;;9.20;7.40;;;;;;;-0.47;65.53;101113.97;5081817;28;20217;-63
2022/03/09 04:17:21;;;;;;;12.30;8.60;;;;;;;-0.40;65.06;101117.22;5086538;28;20676;-63
2022/03/09 04:19:48;;;;;;;8.80;7.23;;;;;;;-0.39;65.27;101124.22;5104731;28;20189;-63
2022/03/09 04:22:14;;;;;;;9.43;6.45;;;;;;;-0.45;65.14;101113.88;5100518;28;20448;-63
2022/03/09 04:24:42;;;;;;;8.95;7.32;;;;;;;-0.48;65.48;101120.09;5084630;28;20724;-63
2022/03/09 04:27:09;;;;;;;9.27;7.30;;;;;;;-0.63;66.43;101118.81;5097947;28;20243;-63
2022/03/09 04:29:36;;;;;;;8.85;7.15;;;;;;;-0.55;66.23;101109.84;5103265;28;20189;-64
2022/03/09 04:32:03;;;;;;;10.35;7.80;;;;;;;-0.58;66.22;101122.16;5095509;28;20220;-63
2022/03/09 04:34:30;;;;;;;12.27;7.80;;;;;;;-0.55;66.20;101115.09;5104708;28;20248;-64
2022/03/09 04:36:57;;;;;;;9.65;8.15;;;;;;;-0.55;66.30;101115.09;5085020;28;20263;-63
2022/03/09 04:39:24;;;;;;;10.15;7.75;;;;;;;-0.53;66.06;101108.03;5068800;28;20331;-64
2022/03/09 04:41:52;;;;;;;11.37;8.43;;;;;;;-0.56;65.89;101106.34;5102719;28;20208;-64
2022/03/09 04:44:19;;;;;;;10.93;7.10;;;;;;;-0.55;65.93;101100.19;5104417;28;20469;-63
2022/03/09 04:46:46;;;;;;;13.18;8.00;;;;;;;-0.52;66.17;101107.09;5104011;28;20767;-63
2022/03/09 04:49:12;;;;;;;11.48;8.13;;;;;;;-0.54;66.01;101114.19;5103605;28;20189;-63
2022/03/09 04:51:39;;;;;;;8.53;7.63;;;;;;;-0.54;66.06;101119.44;5104455;28;20252;-63
2022/03/09 04:54:06;;;;;;;9.57;7.53;;;;;;;-0.52;66.11;101121.13;5102553;28;20689;-63
2022/03/09 04:56:32;;;;;;;11.40;7.50;;;;;;;-0.55;66.12;101115.97;5102093;28;20264;-63
2022/03/09 04:59:00;;;;;;;11.90;7.68;;;;;;;-0.60;66.38;101117.88;5102477;28;20672;-63
2022/03/09 05:01:27;;;;;;;10.02;7.78;;;;;;;-0.48;66.02;101117.47;5101274;28;20233;-63
2022/03/09 05:03:54;;;;;;;9.77;7.67;;;;;;;-0.57;65.74;101112.53;5093351;28;20640;-62
2022/03/09 05:06:24;;;;;;;11.38;6.80;;;;;;;-0.61;65.84;101127.53;5064332;28;20433;-63
2022/03/09 05:08:50;;;;;;;11.07;7.78;;;;;;;-0.66;65.96;101118.94;5081310;28;20198;-63
2022/03/09 05:11:17;;;;;;;9.77;7.27;;;;;;;-0.67;65.99;101118.97;5085597;28;20214;-62
2022/03/09 05:13:44;;;;;;;11.70;7.47;;;;;;;-0.70;66.00;101111.19;5095557;28;20462;-63
2022/03/09 05:16:12;;;;;;;14.77;7.45;;;;;;;-0.64;66.25;101111.00;5103605;28;20236;-64
2022/03/09 05:18:40;;;;;;;10.35;7.82;;;;;;;-0.61;65.85;101114.41;5101769;28;20193;-64
2022/03/09 05:21:07;;;;;;;18.15;8.93;;;;;;;-0.61;66.02;101116.13;5088413;28;20220;-61
2022/03/09 05:23:34;;;;;;;12.73;7.75;;;;;;;-0.67;66.20;101121.59;5086203;28;20198;-61
2022/03/09 05:26:01;;;;;;;11.13;8.00;;;;;;;-0.74;66.38;101118.28;5094798;28;20224;-61
2022/03/09 05:28:27;;;;;;;8.55;6.85;;;;;;;-0.71;66.56;101114.69;5083235;28;20296;-61
2022/03/09 05:30:54;;;;;;;14.65;8.27;;;;;;;-0.72;66.34;101113.00;5082809;28;20270;-61
2022/03/09 05:33:22;;;;;;;20.73;9.95;;;;;;;-0.85;67.00;101112.50;5082759;28;20233;-60
2022/03/09 05:35:49;;;;;;;13.32;9.77;;;;;;;-0.83;67.02;101111.56;5087280;28;20237;-58
2022/03/09 05:38:16;;;;;;;11.90;7.90;;;;;;;-0.78;66.87;101114.91;5090428;28;20233;-58
2022/03/09 05:40:42;;;;;;;11.63;9.20;;;;;;;-0.83;66.96;101115.97;5083491;28;20225;-58
2022/03/09 05:43:09;;;;;;;20.17;9.00;;;;;;;-0.84;67.12;101114.22;5068179;28;20198;-58
2022/03/09 05:45:36;;;;;;;13.68;9.05;;;;;;;-0.84;67.26;101114.22;5082852;28;20206;-58
2022/03/09 05:48:04;;;;;;;11.02;8.77;;;;;;;-0.85;67.34;101120.38;5082269;28;20218;-58
2022/03/09 05:50:32;;;;;;;10.70;8.27;;;;;;;-0.83;67.40;101115.97;5083034;28;20269;-58
2022/03/09 05:52:58;;;;;;;11.50;9.90;;;;;;;-0.79;67.35;101110.56;5067650;28;20672;-59
2022/03/09 05:55:25;;;;;;;12.32;9.00;;;;;;;-0.66;67.29;101112.78;5076098;28;20210;-59
2022/03/09 05:57:52;;;;;;;12.20;9.35;;;;;;;-0.72;66.90;101108.59;5083256;28;20217;-59
2022/03/09 06:00:18;;;;;;;10.68;8.50;;;;;;;-0.72;67.21;101115.63;5082149;28;20202;-58
2022/03/09 06:02:45;;;;;;;16.10;10.03;;;;;;;-0.66;67.08;101123.28;5079055;28;20249;-58
2022/03/09 06:05:12;;;;;;;12.63;8.65;;;;;;;-0.46;66.59;101123.53;5081921;28;20440;-59
2022/03/09 06:07:40;;;;;;;13.20;8.57;;;;;;;0.03;65.54;101126.31;5081026;28;20643;-58
2022/03/09 06:10:08;;;;;;;12.43;9.65;;;;;;;0.49;63.84;101126.53;5072133;28;20255;-58
2022/03/09 06:12:35;;;;;;;17.02;9.65;;;;;;;0.84;62.13;101129.66;5060082;28;20220;-58
2022/03/09 06:15:01;;;;;;;14.67;8.83;;;;;;;0.89;61.79;101131.19;5063019;28;20615;-57
2022/03/09 06:17:28;;;;;;;13.93;8.97;;;;;;;0.98;60.99;101134.41;5065723;28;20459;-59
2022/03/09 06:19:55;;;;;;;14.20;9.57;;;;;;;1.17;60.22;101139.84;5070206;28;20475;-59
2022/03/09 06:22:21;;;;;;;12.70;8.80;;;;;;;1.04;60.63;101135.03;5062259;28;20456;-58
2022/03/09 06:24:49;;;;;;;12.33;8.50;;;;;;;0.87;61.21;101137.44;5062378;28;20230;-59
2022/03/09 06:27:16;;;;;;;14.77;8.27;;;;;;;0.72;61.54;101139.69;5074811;28;20518;-59
2022/03/09 06:29:43;;;;;;;13.07;9.00;;;;;;;0.60;61.98;101139.28;5071647;28;20441;-58
2022/03/09 06:32:09;;;;;;;11.80;9.00;;;;;;;0.47;62.79;101133.59;5060574;28;20463;-59
2022/03/09 06:34:36;;;;;;;12.77;9.20;;;;;;;0.58;63.09;101131.44;5060697;28;20513;-59
2022/03/09 06:37:03;;;;;;;15.07;9.50;;;;;;;1.05;62.91;101131.47;5061313;28;20536;-59
2022/03/09 06:39:30;;;;;;;18.67;8.80;;;;;;;2.75;60.54;101137.72;5080070;28;20480;-59
2022/03/09 06:41:58;;;;;;;10.90;8.80;;;;;;;5.01;52.51;101131.00;5080019;28;21044;-59
2022/03/09 06:44:25;;;;;;;14.73;8.33;;;;;;;6.78;47.34;101134.09;5081581;28;20497;-59
2022/03/09 06:46:51;;;;;;;10.60;7.10;;;;;;;8.72;42.67;101137.44;5081206;28;20782;-60
2022/03/09 06:49:19;;;;;;;9.63;7.10;;;;;;;10.44;39.25;101134.72;5079920;28;20439;-60
2022/03/09 06:51:46;;;;;;;10.60;7.07;;;;;;;11.47;36.57;101144.47;5080454;28;20512;-60
2022/03/09 06:54:12;;;;;;;8.37;7.50;;;;;;;12.34;34.71;101135.53;5077724;28;20436;-60
2022/03/09 06:56:39;;;;;;;9.67;7.70;;;;;;;12.81;32.23;101131.47;5073593;28;20471;-60
2022/03/09 06:59:07;;;;;;;10.23;6.97;;;;;;;13.36;31.72;101141.88;5080645;28;20440;-61
2022/03/09 07:01:34;;;;;;;14.63;7.80;;;;;;;13.37;30.89;101140.06;5079740;28;20444;-60
2022/03/09 07:04:00;;;;;;;8.50;6.80;;;;;;;13.64;31.91;101149.31;5080067;28;20432;-61
2022/03/09 07:06:28;;;;;;;12.10;6.70;;;;;;;14.66;29.93;101146.22;5080270;28;20489;-60
2022/03/09 07:08:54;;;;;;;10.37;7.00;;;;;;;15.56;28.20;101146.53;5078478;28;20573;-61
2022/03/09 07:11:21;;;;;;;9.00;6.57;;;;;;;16.48;27.09;101147.28;5080323;28;20455;-61
2022/03/09 07:13:48;;;;;;;13.13;7.50;;;;;;;16.97;24.93;101142.22;5079138;28;20467;-61
2022/03/09 07:16:16;;;;;;;10.90;7.70;;;;;;;16.63;25.28;101151.09;5079178;28;20517;-60
2022/03/09 07:18:42;;;;;;;9.30;7.40;;;;;;;16.70;24.63;101138.66;5080263;28;20440;-62
2022/03/09 07:21:09;;;;;;;9.40;7.10;;;;;;;17.45;24.87;101150.72;5080029;28;20460;-61
2022/03/09 07:23:36;;;;;;;8.97;7.40;;;;;;;18.23;24.03;101152.25;5079227;28;20918;-62
2022/03/09 07:26:03;;;;;;;7.67;6.87;;;;;;;19.02;22.68;101157.06;5080781;28;20432;-61
2022/03/09 07:28:29;;;;;;;8.63;7.10;;;;;;;18.96;22.02;101155.91;5079302;28;20443;-62
2022/03/09 07:30:56;;;;;;;11.53;7.50;;;;;;;18.08;22.62;101145.81;5078715;28;20443;-61
2022/03/09 07:33:24;;;;;;;9.63;7.40;;;;;;;18.39;23.04;101157.63;5079656;28;20482;-61
2022/03/09 07:35:51;;;;;;;8.93;7.33;;;;;;;18.78;22.19;101151.53;5080077;28;20464;-61
2022/03/09 07:38:18;;;;;;;9.77;7.33;;;;;;;19.12;21.54;101152.31;5075676;28;20762;-61
2022/03/09 07:40:45;;;;;;;9.63;7.83;;;;;;;19.21;21.45;101153.94;5078651;28;20730;-61
2022/03/09 07:43:11;;;;;;;10.00;7.50;;;;;;;18.86;21.67;101153.38;5078023;28;20444;-61
2022/03/09 07:45:38;;;;;;;12.30;7.90;;;;;;;19.16;22.06;101151.75;5090844;28;20443;-61
2022/03/09 07:48:05;;;;;;;10.20;7.97;;;;;;;19.77;20.98;101150.31;5099408;28;20431;-62
2022/03/09 07:50:33;;;;;;;9.67;8.70;;;;;;;19.92;20.59;101149.38;5098674;28;20424;-61
2022/03/09 07:53:00;;;;;;;14.60;7.60;;;;;;;19.67;20.48;101150.50;5102652;28;20504;-61
2022/03/09 07:55:27;;;;;;;11.50;8.20;;;;;;;18.64;21.70;101154.91;5088649;28;20490;-60
2022/03/09 07:57:53;;;;;;;8.70;7.20;;;;;;;17.71;22.66;101153.31;5082898;28;20436;-60
2022/03/09 08:00:20;;;;;;;9.20;8.20;;;;;;;17.05;23.25;101157.63;5082010;28;20440;-60
2022/03/09 08:02:47;;;;;;;9.77;8.20;;;;;;;17.43;23.22;101155.41;5082591;28;20459;-60
2022/03/09 08:05:14;;;;;;;10.13;8.67;;;;;;;17.85;23.26;101158.06;5083025;28;20432;-60
2022/03/09 08:07:42;;;;;;;16.10;8.93;;;;;;;18.16;22.54;101156.66;5082184;28;20840;-60
2022/03/09 08:10:10;;;;;;;10.10;7.80;;;;;;;18.55;22.13;101158.66;5079926;28;20864;-61
2022/03/09 08:12:36;;;;;;;11.47;8.87;;;;;;;18.17;22.27;101158.31;5081598;28;20448;-61
2022/03/09 08:15:04;;;;;;;9.83;8.30;;;;;;;17.23;22.96;101157.53;5082351;28;20497;-60
2022/03/09 08:17:31;;;;;;;11.67;8.33;;;;;;;16.52;24.30;101157.56;5081201;28;20487;-60
2022/03/09 08:19:57;;;;;;;13.60;7.50;;;;;;;17.02;23.97;101158.78;5081912;28;20478;-61
2022/03/09 08:22:24;;;;;;;12.10;8.00;;;;;;;17.48;23.30;101158.47;5082260;28;20478;-60
2022/03/09 08:24:52;;;;;;;10.33;7.87;;;;;;;16.74;23.82;101152.69;5081479;28;20434;-60
2022/03/09 08:27:19;;;;;;;10.43;8.20;;;;;;;17.31;23.34;101152.19;5082385;28;20448;-60
2022/03/09 08:29:46;;;;;;;10.40;8.10;;;;;;;17.69;23.34;101155.34;5081934;28;20432;-61
2022/03/09 08:32:12;;;;;;;10.70;8.00;;;;;;;18.55;22.47;101145.13;5080660;28;20456;-61
2022/03/09 08:34:39;;;;;;;11.30;8.40;;;;;;;19.14;22.02;101161.94;5097949;28;20442;-61
2022/03/09 08:37:06;;;;;;;9.00;7.60;;;;;;;18.50;23.11;101161.03;5095328;28;21005;-61
2022/03/09 08:39:33;;;;;;;10.73;7.90;;;;;;;19.38;21.90;101171.84;5060630;28;20546;-61
2022/03/09 08:42:01;;;;;;;10.57;7.53;;;;;;;19.22;21.60;101162.91;5062071;28;20452;-61
2022/03/09 08:44:27;;;;;;;11.40;8.50;;;;;;;16.62;24.36;101165.59;5062489;28;20433;-61
2022/03/09 08:46:54;;;;;;;14.60;8.40;;;;;;;17.23;24.47;101166.47;5060250;28;20567;-60
2022/03/09 08:49:24;;;;;;;10.47;8.20;;;;;;;17.26;24.25;101171.56;5070987;28;20459;-60
2022/03/09 08:51:50;;;;;;;9.50;7.60;;;;;;;18.52;23.08;101161.69;5081207;28;20978;-61
2022/03/09 08:54:17;;;;;;;10.80;8.07;;;;;;;18.94;22.58;101168.75;5076678;28;20451;-61
2022/03/09 08:56:44;;;;;;;11.50;8.20;;;;;;;19.03;21.99;101165.03;5061660;28;20483;-61
2022/03/09 08:59:13;;;;;;;10.80;8.20;;;;;;;17.42;23.41;101165.38;5061167;28;20882;-60
2022/03/09 09:01:39;;;;;;;10.00;8.00;;;;;;;16.80;24.84;101170.09;5059987;28;20540;-60
2022/03/09 09:04:06;;;;;;;9.53;8.23;;;;;;;17.59;23.67;101178.97;5060823;28;20446;-61
2022/03/09 09:06:33;;;;;;;10.73;7.67;;;;;;;18.05;23.68;101166.78;5061592;28;20441;-61
2022/03/09 09:09:00;;;;;;;12.00;7.93;;;;;;;17.43;23.83;101185.13;5058143;28;20445;-60
2022/03/09 09:11:26;;;;;;;9.80;8.80;;;;;;;16.94;24.58;101172.22;5060814;28;20455;-60
2022/03/09 09:13:53;;;;;;;10.23;8.43;;;;;;;16.79;24.81;101180.06;5061248;28;20429;-60
2022/03/09 09:16:21;;;;;;;10.70;8.40;;;;;;;16.20;25.37;101177.06;5059444;28;20514;-60
2022/03/09 09:18:48;;;;;;;10.00;8.53;;;;;;;15.92;26.12;101176.25;5060994;28;20469;-60
2022/03/09 09:21:14;;;;;;;13.83;8.80;;;;;;;15.20;26.83;101179.59;5061059;28;20453;-60
2022/03/09 09:23:41;;;;;;;9.87;8.70;;;;;;;16.29;25.78;101178.81;5060533;28;20441;-60
2022/03/09 09:26:07;;;;;;;9.53;8.20;;;;;;;14.70;26.70;101177.22;5060852;28;20468;-60
2022/03/09 09:28:34;;;;;;;8.43;7.53;;;;;;;15.94;26.26;101169.72;5061302;28;20456;-60
2022/03/09 09:31:01;;;;;;;11.17;8.30;;;;;;;16.05;26.24;101167.81;5059439;28;21247;-60
2022/03/09 09:33:29;;;;;;;12.70;7.20;;;;;;;15.64;26.09;101179.00;5060618;28;20471;-60
2022/03/09 09:35:56;;;;;;;9.80;8.43;;;;;;;15.14;26.50;101176.69;5060239;28;20540;-60
2022/03/09 09:38:23;;;;;;;12.27;8.57;;;;;;;14.11;28.55;101177.25;5069639;28;20502;-60
2022/03/09 09:40:53;;;;;;;10.83;7.80;;;;;;;14.83;28.02;101190.38;5080565;28;20953;-60
2022/03/09 09:43:20;;;;;;;10.07;8.10;;;;;;;15.17;27.18;101181.75;5080601;28;20443;-60
2022/03/09 09:45:47;;;;;;;10.13;6.90;;;;;;;15.12;26.87;101179.53;5079321;28;20455;-60
2022/03/09 09:48:14;;;;;;;13.73;7.63;;;;;;;14.07;28.69;101169.59;5080573;28;20432;-60
2022/03/09 09:50:43;;;;;;;13.73;8.63;;;;;;;14.08;29.04;101165.91;5080924;28;20446;-60
2022/03/09 09:53:12;;;;;;;9.40;8.13;;;;;;;14.17;28.75;101167.75;5079378;28;20463;-61
2022/03/09 09:55:40;;;;;;;11.03;6.70;;;;;;;14.40;28.31;101162.91;5080469;28;20973;-60
2022/03/09 09:58:07;;;;;;;9.83;6.73;;;;;;;14.39;27.92;101163.06;5080565;28;20444;-60
2022/03/09 10:00:34;;;;;;;9.97;7.73;;;;;;;14.66;27.44;101173.97;5079674;28;20433;-60
2022/03/09 10:03:01;;;;;;;8.53;7.30;;;;;;;14.47;27.86;101171.28;5079956;28;20456;-61
2022/03/09 10:05:28;;;;;;;11.30;7.87;;;;;;;14.55;27.83;101175.91;5080922;28;20494;-59
2022/03/09 10:08:21;;;;;;;8.87;7.20;;;;;;;15.57;26.71;101176.03;5079291;28;20562;-61
2022/03/09 10:10:57;;;;;;;9.97;6.80;;;;;;;15.44;26.52;101173.69;5080023;28;20450;-62
2022/03/09 10:13:26;;;;;;;9.93;7.40;;;;;;;16.15;25.89;101157.78;5080231;28;20423;-60
2022/03/09 10:16:08;;;;;;;10.37;8.00;;;;;;;15.75;25.58;101165.31;5078977;28;20424;-61
2022/03/09 10:18:36;;;;;;;8.60;7.23;;;;;;;15.48;26.84;101159.91;5079862;28;20460;-61
2022/03/09 10:21:10;;;;;;;9.10;7.33;;;;;;;17.21;25.08;101151.44;5079676;28;20440;-61
2022/03/09 10:23:54;;;;;;;8.00;6.90;;;;;;;17.74;24.16;101157.53;5079726;28;20440;-62
2022/03/09 10:26:24;;;;;;;8.90;7.80;;;;;;;18.12;23.19;101145.28;5080140;28;20455;-60
2022/03/09 10:29:01;;;;;;;9.53;7.33;;;;;;;18.08;23.87;101143.94;5080709;28;20454;-61
2022/03/09 10:31:32;;;;;;;8.00;7.13;;;;;;;18.15;23.46;101149.53;5077930;28;20456;-60
2022/03/09 10:34:06;;;;;;;11.20;7.63;;;;;;;17.52;23.23;101148.19;5080255;28;20445;-61
2022/03/09 10:36:33;;;;;;;9.87;8.13;;;;;;;17.46;22.78;101142.44;5079876;28;20492;-60
2022/03/09 10:39:12;;;;;;;9.60;7.90;;;;;;;17.10;22.97;101139.91;5078447;28;20484;-61
2022/03/09 10:41:39;;;;;;;9.73;7.03;;;;;;;15.21;26.92;101137.38;5078765;28;20506;-61
2022/03/09 10:44:05;;;;;;;11.17;6.87;;;;;;;16.67;23.02;101138.13;5079534;28;20432;-61
2022/03/09 10:46:42;;;;;;;12.33;7.23;;;;;;;15.67;24.22;101138.22;5078433;28;20448;-61
2022/03/09 10:49:08;;;;;;;9.50;7.10;;;;;;;17.18;23.13;101133.69;5079144;28;20535;-61
2022/03/09 10:51:37;;;;;;;7.50;6.70;;;;;;;18.74;20.62;101130.34;5079046;28;20460;-61
2022/03/09 10:54:05;;;;;;;7.73;6.90;;;;;;;17.98;21.24;101122.44;5078440;28;20428;-61
2022/03/09 10:56:34;;;;;;;7.30;6.23;;;;;;;16.21;22.30;101135.56;5079540;28;20491;-60
2022/03/09 10:59:16;;;;;;;10.13;6.90;;;;;;;16.94;21.24;101124.47;5079446;28;20432;-61
2022/03/09 11:01:44;;;;;;;7.83;6.80;;;;;;;17.41;20.99;101125.88;5073876;28;20876;-61
2022/03/09 11:04:16;;;;;;;9.90;6.80;;;;;;;16.75;21.94;101120.13;5079561;28;20447;-61
2022/03/09 11:06:46;;;;;;;11.10;7.60;;;;;;;15.05;23.61;101124.53;5079507;28;20453;-60
2022/03/09 11:09:15;;;;;;;10.10;8.00;;;;;;;15.61;23.29;101122.69;5076184;28;20447;-60
2022/03/09 11:11:43;;;;;;;9.93;7.07;;;;;;;16.20;23.67;101120.41;5078575;28;20520;-61
2022/03/09 11:14:11;;;;;;;9.07;7.80;;;;;;;16.00;23.34;101114.31;5078782;28;20500;-60
2022/03/09 11:16:38;;;;;;;8.70;7.50;;;;;;;15.07;25.16;101126.09;5078090;28;20479;-60
2022/03/09 11:19:04;;;;;;;8.73;7.70;;;;;;;15.30;24.81;101124.84;5078815;28;20436;-61
2022/03/09 11:21:31;;;;;;;8.40;7.03;;;;;;;16.18;23.47;101115.16;5078676;28;20527;-61
2022/03/09 11:23:59;;;;;;;10.37;7.57;;;;;;;16.54;22.59;101117.81;5078796;28;20432;-60
2022/03/09 11:26:27;;;;;;;9.03;7.27;;;;;;;16.63;22.80;101121.41;5078626;28;20443;-59
2022/03/09 11:29:02;;;;;;;10.07;6.60;;;;;;;15.54;24.38;101106.25;5079089;28;20456;-59